sensor_id;sensor_type;location;lat;lon;timestamp;P1;durP1;ratioP1;P2;durP2;ratioP2
60211;SDS011;46079;48.686;15.598;2023-05-10T00:01:29;5.70;;;1.88;;
60211;SDS011;46079;48.686;15.598;2023-05-10T00:03:54;6.10;;;1.70;;
60211;SDS011;46079;48.686;15.598;2023-05-10T00:06:20;6.93;;;2.10;;
60211;SDS011;46079;48.686;15.598;2023-05-10T00:08:45;6.63;;;1.98;;
60211;SDS011;46079;48.686;15.598;2023-05-10T00:11:11;5.65;;;1.83;;
60211;SDS011;46079;48.686;15.598;2023-05-10T00:13:36;6.55;;;2.13;;
60211;SDS011;46079;48.686;15.598;2023-05-10T00:16:02;7.55;;;1.90;;
60211;SDS011;46079;48.686;15.598;2023-05-10T00:18:27;5.45;;;1.67;;
60211;SDS011;46079;48.686;15.598;2023-05-10T00:20:52;5.28;;;1.60;;
60211;SDS011;46079;48.686;15.598;2023-05-10T00:23:18;5.47;;;1.60;;
60211;SDS011;46079;48.686;15.598;2023-05-10T00:25:43;5.45;;;1.70;;
60211;SDS011;46079;48.686;15.598;2023-05-10T00:28:08;5.72;;;1.83;;
60211;SDS011;46079;48.686;15.598;2023-05-10T00:30:34;5.50;;;1.80;;
60211;SDS011;46079;48.686;15.598;2023-05-10T00:32:59;6.20;;;1.90;;
60211;SDS011;46079;48.686;15.598;2023-05-10T00:35:25;6.47;;;1.90;;
60211;SDS011;46079;48.686;15.598;2023-05-10T00:37:51;6.40;;;1.80;;
60211;SDS011;46079;48.686;15.598;2023-05-10T00:40:16;6.00;;;1.70;;
60211;SDS011;46079;48.686;15.598;2023-05-10T00:42:42;7.25;;;1.98;;
60211;SDS011;46079;48.686;15.598;2023-05-10T00:45:07;5.90;;;1.80;;
60211;SDS011;46079;48.686;15.598;2023-05-10T00:47:33;5.65;;;1.80;;
60211;SDS011;46079;48.686;15.598;2023-05-10T00:49:59;6.68;;;1.95;;
60211;SDS011;46079;48.686;15.598;2023-05-10T00:52:26;5.78;;;1.77;;
60211;SDS011;46079;48.686;15.598;2023-05-10T00:54:54;8.43;;;1.85;;
60211;SDS011;46079;48.686;15.598;2023-05-10T00:57:20;6.03;;;1.75;;
60211;SDS011;46079;48.686;15.598;2023-05-10T00:59:46;6.53;;;2.00;;
60211;SDS011;46079;48.686;15.598;2023-05-10T01:02:13;6.35;;;1.85;;
60211;SDS011;46079;48.686;15.598;2023-05-10T01:04:38;5.95;;;1.60;;
60211;SDS011;46079;48.686;15.598;2023-05-10T01:07:04;5.32;;;1.70;;
60211;SDS011;46079;48.686;15.598;2023-05-10T01:09:29;6.55;;;1.85;;
60211;SDS011;46079;48.686;15.598;2023-05-10T01:11:55;5.38;;;1.75;;
60211;SDS011;46079;48.686;15.598;2023-05-10T01:14:21;5.75;;;1.58;;
60211;SDS011;46079;48.686;15.598;2023-05-10T01:16:47;4.95;;;1.70;;
60211;SDS011;46079;48.686;15.598;2023-05-10T01:19:24;5.43;;;1.60;;
60211;SDS011;46079;48.686;15.598;2023-05-10T01:24:55;5.40;;;1.60;;
60211;SDS011;46079;48.686;15.598;2023-05-10T01:33:25;5.18;;;1.58;;
60211;SDS011;46079;48.686;15.598;2023-05-10T01:36:03;5.20;;;1.70;;
60211;SDS011;46079;48.686;15.598;2023-05-10T01:46:41;5.00;;;1.58;;
60211;SDS011;46079;48.686;15.598;2023-05-10T01:49:11;5.82;;;1.88;;
60211;SDS011;46079;48.686;15.598;2023-05-10T01:51:47;5.00;;;1.60;;
60211;SDS011;46079;48.686;15.598;2023-05-10T01:54:17;5.65;;;1.67;;
60211;SDS011;46079;48.686;15.598;2023-05-10T01:56:45;6.07;;;1.52;;
60211;SDS011;46079;48.686;15.598;2023-05-10T01:59:16;5.32;;;1.75;;
60211;SDS011;46079;48.686;15.598;2023-05-10T02:01:44;5.82;;;1.85;;
60211;SDS011;46079;48.686;15.598;2023-05-10T02:04:10;5.55;;;1.70;;
60211;SDS011;46079;48.686;15.598;2023-05-10T02:06:38;5.57;;;1.60;;
60211;SDS011;46079;48.686;15.598;2023-05-10T02:09:05;4.28;;;1.70;;
60211;SDS011;46079;48.686;15.598;2023-05-10T02:11:32;5.97;;;1.85;;
60211;SDS011;46079;48.686;15.598;2023-05-10T02:13:58;6.47;;;1.63;;
60211;SDS011;46079;48.686;15.598;2023-05-10T02:16:26;4.85;;;1.67;;
60211;SDS011;46079;48.686;15.598;2023-05-10T02:18:52;6.28;;;1.70;;
60211;SDS011;46079;48.686;15.598;2023-05-10T02:21:19;5.55;;;1.60;;
60211;SDS011;46079;48.686;15.598;2023-05-10T02:23:46;6.47;;;1.75;;
60211;SDS011;46079;48.686;15.598;2023-05-10T02:26:15;5.20;;;1.60;;
60211;SDS011;46079;48.686;15.598;2023-05-10T02:28:41;5.18;;;1.55;;
60211;SDS011;46079;48.686;15.598;2023-05-10T02:31:08;5.03;;;1.58;;
60211;SDS011;46079;48.686;15.598;2023-05-10T02:33:37;4.57;;;1.50;;
60211;SDS011;46079;48.686;15.598;2023-05-10T02:36:05;5.38;;;1.55;;
60211;SDS011;46079;48.686;15.598;2023-05-10T02:38:33;6.20;;;1.52;;
60211;SDS011;46079;48.686;15.598;2023-05-10T02:41:01;4.38;;;1.40;;
60211;SDS011;46079;48.686;15.598;2023-05-10T02:43:28;6.00;;;1.70;;
60211;SDS011;46079;48.686;15.598;2023-05-10T02:45:56;4.90;;;1.52;;
60211;SDS011;46079;48.686;15.598;2023-05-10T02:48:22;5.88;;;1.67;;
60211;SDS011;46079;48.686;15.598;2023-05-10T02:50:47;5.95;;;1.60;;
60211;SDS011;46079;48.686;15.598;2023-05-10T02:53:22;5.18;;;1.50;;
60211;SDS011;46079;48.686;15.598;2023-05-10T02:55:53;6.05;;;1.73;;
60211;SDS011;46079;48.686;15.598;2023-05-10T02:58:23;6.10;;;1.70;;
60211;SDS011;46079;48.686;15.598;2023-05-10T03:00:49;5.10;;;1.45;;
60211;SDS011;46079;48.686;15.598;2023-05-10T03:03:17;4.05;;;1.40;;
60211;SDS011;46079;48.686;15.598;2023-05-10T03:05:42;5.03;;;1.55;;
60211;SDS011;46079;48.686;15.598;2023-05-10T03:08:08;5.60;;;1.80;;
60211;SDS011;46079;48.686;15.598;2023-05-10T03:10:38;6.03;;;1.70;;
60211;SDS011;46079;48.686;15.598;2023-05-10T03:13:16;5.70;;;1.75;;
60211;SDS011;46079;48.686;15.598;2023-05-10T03:18:22;5.65;;;1.55;;
60211;SDS011;46079;48.686;15.598;2023-05-10T03:20:57;5.13;;;1.60;;
60211;SDS011;46079;48.686;15.598;2023-05-10T03:26:24;5.38;;;1.48;;
60211;SDS011;46079;48.686;15.598;2023-05-10T03:28:52;6.30;;;1.73;;
60211;SDS011;46079;48.686;15.598;2023-05-10T03:31:18;4.75;;;1.48;;
60211;SDS011;46079;48.686;15.598;2023-05-10T03:33:50;5.80;;;1.65;;
60211;SDS011;46079;48.686;15.598;2023-05-10T03:36:17;4.80;;;1.52;;
60211;SDS011;46079;48.686;15.598;2023-05-10T03:38:43;5.68;;;1.60;;
60211;SDS011;46079;48.686;15.598;2023-05-10T03:41:08;5.90;;;1.88;;
60211;SDS011;46079;48.686;15.598;2023-05-10T03:43:34;4.18;;;1.48;;
60211;SDS011;46079;48.686;15.598;2023-05-10T03:46:01;5.45;;;1.60;;
60211;SDS011;46079;48.686;15.598;2023-05-10T03:48:30;6.30;;;1.70;;
60211;SDS011;46079;48.686;15.598;2023-05-10T03:50:57;6.13;;;1.88;;
60211;SDS011;46079;48.686;15.598;2023-05-10T03:53:23;5.57;;;1.60;;
60211;SDS011;46079;48.686;15.598;2023-05-10T03:55:48;5.60;;;1.60;;
60211;SDS011;46079;48.686;15.598;2023-05-10T03:58:14;4.43;;;1.40;;
60211;SDS011;46079;48.686;15.598;2023-05-10T04:00:39;4.25;;;1.45;;
60211;SDS011;46079;48.686;15.598;2023-05-10T04:03:10;4.53;;;1.50;;
60211;SDS011;46079;48.686;15.598;2023-05-10T04:05:36;4.03;;;1.35;;
60211;SDS011;46079;48.686;15.598;2023-05-10T04:08:02;4.45;;;1.60;;
60211;SDS011;46079;48.686;15.598;2023-05-10T04:10:27;5.07;;;1.60;;
60211;SDS011;46079;48.686;15.598;2023-05-10T04:12:53;4.53;;;1.40;;
60211;SDS011;46079;48.686;15.598;2023-05-10T04:15:19;6.22;;;1.60;;
60211;SDS011;46079;48.686;15.598;2023-05-10T04:17:44;3.92;;;1.23;;
60211;SDS011;46079;48.686;15.598;2023-05-10T04:20:10;4.45;;;1.55;;
60211;SDS011;46079;48.686;15.598;2023-05-10T04:22:36;4.57;;;1.52;;
60211;SDS011;46079;48.686;15.598;2023-05-10T04:25:01;5.88;;;1.50;;
60211;SDS011;46079;48.686;15.598;2023-05-10T04:27:27;5.40;;;1.60;;
60211;SDS011;46079;48.686;15.598;2023-05-10T04:29:52;4.43;;;1.50;;
60211;SDS011;46079;48.686;15.598;2023-05-10T04:32:17;4.25;;;1.40;;
60211;SDS011;46079;48.686;15.598;2023-05-10T04:34:44;6.32;;;1.63;;
60211;SDS011;46079;48.686;15.598;2023-05-10T04:37:09;4.70;;;1.45;;
60211;SDS011;46079;48.686;15.598;2023-05-10T04:39:35;5.93;;;1.70;;
60211;SDS011;46079;48.686;15.598;2023-05-10T04:42:00;6.90;;;1.83;;
60211;SDS011;46079;48.686;15.598;2023-05-10T04:44:28;5.75;;;1.98;;
60211;SDS011;46079;48.686;15.598;2023-05-10T04:46:53;5.70;;;1.80;;
60211;SDS011;46079;48.686;15.598;2023-05-10T04:49:19;5.78;;;1.90;;
60211;SDS011;46079;48.686;15.598;2023-05-10T04:51:44;7.25;;;2.22;;
60211;SDS011;46079;48.686;15.598;2023-05-10T04:54:10;7.38;;;2.10;;
60211;SDS011;46079;48.686;15.598;2023-05-10T04:56:35;7.22;;;2.10;;
60211;SDS011;46079;48.686;15.598;2023-05-10T04:59:01;6.38;;;2.08;;
60211;SDS011;46079;48.686;15.598;2023-05-10T05:01:26;11.43;;;2.50;;
60211;SDS011;46079;48.686;15.598;2023-05-10T05:03:52;7.60;;;2.03;;
60211;SDS011;46079;48.686;15.598;2023-05-10T05:06:18;7.40;;;2.30;;
60211;SDS011;46079;48.686;15.598;2023-05-10T05:08:43;8.80;;;2.40;;
60211;SDS011;46079;48.686;15.598;2023-05-10T05:11:08;8.75;;;2.40;;
60211;SDS011;46079;48.686;15.598;2023-05-10T05:13:34;6.55;;;2.20;;
60211;SDS011;46079;48.686;15.598;2023-05-10T05:16:00;8.18;;;2.20;;
60211;SDS011;46079;48.686;15.598;2023-05-10T05:18:28;6.50;;;1.98;;
60211;SDS011;46079;48.686;15.598;2023-05-10T05:20:53;7.50;;;2.30;;
60211;SDS011;46079;48.686;15.598;2023-05-10T05:23:19;7.35;;;2.17;;
60211;SDS011;46079;48.686;15.598;2023-05-10T05:25:45;7.07;;;2.08;;
60211;SDS011;46079;48.686;15.598;2023-05-10T05:28:11;7.70;;;2.33;;
60211;SDS011;46079;48.686;15.598;2023-05-10T05:30:37;8.57;;;2.10;;
60211;SDS011;46079;48.686;15.598;2023-05-10T05:33:02;6.80;;;2.22;;
60211;SDS011;46079;48.686;15.598;2023-05-10T05:35:28;8.13;;;2.10;;
60211;SDS011;46079;48.686;15.598;2023-05-10T05:37:53;12.27;;;2.40;;
60211;SDS011;46079;48.686;15.598;2023-05-10T05:40:18;6.45;;;1.90;;
60211;SDS011;46079;48.686;15.598;2023-05-10T05:42:45;6.75;;;2.10;;
60211;SDS011;46079;48.686;15.598;2023-05-10T05:45:10;8.70;;;2.38;;
60211;SDS011;46079;48.686;15.598;2023-05-10T05:47:38;6.65;;;2.10;;
60211;SDS011;46079;48.686;15.598;2023-05-10T05:50:05;7.47;;;2.10;;
60211;SDS011;46079;48.686;15.598;2023-05-10T05:52:30;6.90;;;2.13;;
60211;SDS011;46079;48.686;15.598;2023-05-10T05:54:56;6.78;;;1.98;;
60211;SDS011;46079;48.686;15.598;2023-05-10T05:57:21;7.18;;;2.20;;
60211;SDS011;46079;48.686;15.598;2023-05-10T05:59:49;8.57;;;2.33;;
60211;SDS011;46079;48.686;15.598;2023-05-10T06:02:14;7.57;;;2.00;;
60211;SDS011;46079;48.686;15.598;2023-05-10T06:04:40;7.43;;;2.05;;
60211;SDS011;46079;48.686;15.598;2023-05-10T06:07:05;6.18;;;1.95;;
60211;SDS011;46079;48.686;15.598;2023-05-10T06:09:31;6.70;;;1.95;;
60211;SDS011;46079;48.686;15.598;2023-05-10T06:11:56;6.22;;;1.83;;
60211;SDS011;46079;48.686;15.598;2023-05-10T06:14:22;8.07;;;2.20;;
60211;SDS011;46079;48.686;15.598;2023-05-10T06:16:47;7.07;;;1.90;;
60211;SDS011;46079;48.686;15.598;2023-05-10T06:19:13;8.80;;;2.17;;
60211;SDS011;46079;48.686;15.598;2023-05-10T06:21:38;6.72;;;1.92;;
60211;SDS011;46079;48.686;15.598;2023-05-10T06:24:04;8.73;;;2.35;;
60211;SDS011;46079;48.686;15.598;2023-05-10T06:26:31;6.03;;;1.98;;
60211;SDS011;46079;48.686;15.598;2023-05-10T06:28:58;7.97;;;2.38;;
60211;SDS011;46079;48.686;15.598;2023-05-10T06:31:23;6.40;;;2.10;;
60211;SDS011;46079;48.686;15.598;2023-05-10T06:33:49;5.50;;;1.83;;
60211;SDS011;46079;48.686;15.598;2023-05-10T06:36:14;8.82;;;2.03;;
60211;SDS011;46079;48.686;15.598;2023-05-10T06:38:40;6.60;;;2.20;;
60211;SDS011;46079;48.686;15.598;2023-05-10T06:41:05;6.32;;;1.88;;
60211;SDS011;46079;48.686;15.598;2023-05-10T06:43:30;6.45;;;2.00;;
60211;SDS011;46079;48.686;15.598;2023-05-10T06:45:56;7.60;;;2.10;;
60211;SDS011;46079;48.686;15.598;2023-05-10T06:48:22;6.68;;;2.00;;
60211;SDS011;46079;48.686;15.598;2023-05-10T06:50:48;6.22;;;1.83;;
60211;SDS011;46079;48.686;15.598;2023-05-10T06:53:13;5.38;;;1.60;;
60211;SDS011;46079;48.686;15.598;2023-05-10T06:55:39;5.95;;;1.85;;
60211;SDS011;46079;48.686;15.598;2023-05-10T06:58:04;6.47;;;2.08;;
60211;SDS011;46079;48.686;15.598;2023-05-10T07:00:30;8.63;;;2.10;;
60211;SDS011;46079;48.686;15.598;2023-05-10T07:02:55;6.88;;;1.80;;
60211;SDS011;46079;48.686;15.598;2023-05-10T07:05:20;6.18;;;1.90;;
60211;SDS011;46079;48.686;15.598;2023-05-10T07:07:46;6.53;;;1.83;;
60211;SDS011;46079;48.686;15.598;2023-05-10T07:10:12;6.85;;;1.95;;
60211;SDS011;46079;48.686;15.598;2023-05-10T07:12:37;6.10;;;1.88;;
60211;SDS011;46079;48.686;15.598;2023-05-10T07:15:03;6.22;;;2.00;;
60211;SDS011;46079;48.686;15.598;2023-05-10T07:17:29;8.13;;;2.03;;
60211;SDS011;46079;48.686;15.598;2023-05-10T07:19:55;6.70;;;1.90;;
60211;SDS011;46079;48.686;15.598;2023-05-10T07:22:20;6.40;;;2.00;;
60211;SDS011;46079;48.686;15.598;2023-05-10T07:24:45;6.18;;;1.98;;
60211;SDS011;46079;48.686;15.598;2023-05-10T07:27:11;6.53;;;1.80;;
60211;SDS011;46079;48.686;15.598;2023-05-10T07:29:37;6.30;;;2.00;;
60211;SDS011;46079;48.686;15.598;2023-05-10T07:32:03;5.90;;;1.77;;
60211;SDS011;46079;48.686;15.598;2023-05-10T07:34:29;6.40;;;1.90;;
60211;SDS011;46079;48.686;15.598;2023-05-10T07:36:56;6.03;;;1.95;;
60211;SDS011;46079;48.686;15.598;2023-05-10T07:39:24;5.82;;;1.92;;
60211;SDS011;46079;48.686;15.598;2023-05-10T07:41:50;7.05;;;1.92;;
60211;SDS011;46079;48.686;15.598;2023-05-10T07:44:16;5.65;;;1.80;;
60211;SDS011;46079;48.686;15.598;2023-05-10T07:46:43;5.78;;;1.88;;
60211;SDS011;46079;48.686;15.598;2023-05-10T07:49:09;7.78;;;2.15;;
60211;SDS011;46079;48.686;15.598;2023-05-10T07:51:34;5.80;;;1.75;;
60211;SDS011;46079;48.686;15.598;2023-05-10T07:54:01;6.78;;;2.17;;
60211;SDS011;46079;48.686;15.598;2023-05-10T07:56:28;6.43;;;1.90;;
60211;SDS011;46079;48.686;15.598;2023-05-10T07:58:55;6.45;;;1.90;;
60211;SDS011;46079;48.686;15.598;2023-05-10T08:01:21;6.70;;;2.05;;
60211;SDS011;46079;48.686;15.598;2023-05-10T08:03:47;5.88;;;1.90;;
60211;SDS011;46079;48.686;15.598;2023-05-10T08:06:16;5.13;;;1.73;;
60211;SDS011;46079;48.686;15.598;2023-05-10T08:08:43;5.75;;;1.80;;
60211;SDS011;46079;48.686;15.598;2023-05-10T08:11:10;6.30;;;2.00;;
60211;SDS011;46079;48.686;15.598;2023-05-10T08:13:35;6.07;;;1.90;;
60211;SDS011;46079;48.686;15.598;2023-05-10T08:16:01;6.07;;;1.77;;
60211;SDS011;46079;48.686;15.598;2023-05-10T08:18:27;5.65;;;1.95;;
60211;SDS011;46079;48.686;15.598;2023-05-10T08:20:52;5.85;;;1.70;;
60211;SDS011;46079;48.686;15.598;2023-05-10T08:23:18;5.50;;;1.90;;
60211;SDS011;46079;48.686;15.598;2023-05-10T08:25:43;7.22;;;2.22;;
60211;SDS011;46079;48.686;15.598;2023-05-10T08:28:09;6.03;;;2.03;;
60211;SDS011;46079;48.686;15.598;2023-05-10T08:30:34;8.07;;;2.10;;
60211;SDS011;46079;48.686;15.598;2023-05-10T08:32:59;5.65;;;2.03;;
60211;SDS011;46079;48.686;15.598;2023-05-10T08:35:25;7.65;;;1.90;;
60211;SDS011;46079;48.686;15.598;2023-05-10T08:37:50;6.38;;;2.08;;
60211;SDS011;46079;48.686;15.598;2023-05-10T08:40:16;5.53;;;1.80;;
60211;SDS011;46079;48.686;15.598;2023-05-10T08:42:47;6.43;;;2.10;;
60211;SDS011;46079;48.686;15.598;2023-05-10T08:45:19;6.80;;;1.98;;
60211;SDS011;46079;48.686;15.598;2023-05-10T08:47:48;6.53;;;2.30;;
60211;SDS011;46079;48.686;15.598;2023-05-10T08:50:14;6.85;;;2.15;;
60211;SDS011;46079;48.686;15.598;2023-05-10T08:52:42;7.25;;;2.30;;
60211;SDS011;46079;48.686;15.598;2023-05-10T08:55:08;7.03;;;2.30;;
60211;SDS011;46079;48.686;15.598;2023-05-10T08:57:35;6.78;;;2.25;;
60211;SDS011;46079;48.686;15.598;2023-05-10T09:00:01;7.55;;;2.40;;
60211;SDS011;46079;48.686;15.598;2023-05-10T09:02:26;8.30;;;2.40;;
60211;SDS011;46079;48.686;15.598;2023-05-10T09:04:52;7.28;;;2.30;;
60211;SDS011;46079;48.686;15.598;2023-05-10T09:07:17;7.13;;;2.60;;
60211;SDS011;46079;48.686;15.598;2023-05-10T09:09:45;8.38;;;2.58;;
60211;SDS011;46079;48.686;15.598;2023-05-10T09:12:11;8.20;;;2.72;;
60211;SDS011;46079;48.686;15.598;2023-05-10T09:14:38;7.70;;;2.60;;
60211;SDS011;46079;48.686;15.598;2023-05-10T09:17:04;7.03;;;2.28;;
60211;SDS011;46079;48.686;15.598;2023-05-10T09:19:30;7.43;;;2.67;;
60211;SDS011;46079;48.686;15.598;2023-05-10T09:21:55;8.25;;;2.78;;
60211;SDS011;46079;48.686;15.598;2023-05-10T09:24:25;6.95;;;2.58;;
60211;SDS011;46079;48.686;15.598;2023-05-10T09:26:52;7.43;;;2.50;;
60211;SDS011;46079;48.686;15.598;2023-05-10T09:29:17;7.00;;;2.22;;
60211;SDS011;46079;48.686;15.598;2023-05-10T09:31:44;8.68;;;2.70;;
60211;SDS011;46079;48.686;15.598;2023-05-10T09:34:15;7.32;;;2.47;;
60211;SDS011;46079;48.686;15.598;2023-05-10T09:36:56;7.07;;;2.50;;
60211;SDS011;46079;48.686;15.598;2023-05-10T09:39:37;7.22;;;2.60;;
60211;SDS011;46079;48.686;15.598;2023-05-10T09:42:04;7.70;;;2.50;;
60211;SDS011;46079;48.686;15.598;2023-05-10T09:44:32;6.93;;;2.38;;
60211;SDS011;46079;48.686;15.598;2023-05-10T09:46:59;6.22;;;2.17;;
60211;SDS011;46079;48.686;15.598;2023-05-10T09:49:25;6.85;;;2.65;;
60211;SDS011;46079;48.686;15.598;2023-05-10T09:52:03;6.25;;;2.22;;
60211;SDS011;46079;48.686;15.598;2023-05-10T09:54:30;5.88;;;2.10;;
60211;SDS011;46079;48.686;15.598;2023-05-10T09:56:56;7.63;;;2.42;;
60211;SDS011;46079;48.686;15.598;2023-05-10T09:59:22;7.18;;;2.35;;
60211;SDS011;46079;48.686;15.598;2023-05-10T10:01:50;7.22;;;2.40;;
60211;SDS011;46079;48.686;15.598;2023-05-10T10:04:16;6.85;;;2.13;;
60211;SDS011;46079;48.686;15.598;2023-05-10T10:06:42;7.05;;;2.30;;
60211;SDS011;46079;48.686;15.598;2023-05-10T10:09:07;6.60;;;2.13;;
60211;SDS011;46079;48.686;15.598;2023-05-10T10:11:38;7.40;;;2.33;;
60211;SDS011;46079;48.686;15.598;2023-05-10T10:14:04;6.78;;;2.00;;
60211;SDS011;46079;48.686;15.598;2023-05-10T10:16:30;6.80;;;2.50;;
60211;SDS011;46079;48.686;15.598;2023-05-10T10:18:56;5.82;;;2.10;;
60211;SDS011;46079;48.686;15.598;2023-05-10T10:21:22;7.32;;;2.40;;
60211;SDS011;46079;48.686;15.598;2023-05-10T10:23:48;7.43;;;2.58;;
60211;SDS011;46079;48.686;15.598;2023-05-10T10:26:14;8.00;;;2.35;;
60211;SDS011;46079;48.686;15.598;2023-05-10T10:28:43;6.63;;;2.28;;
60211;SDS011;46079;48.686;15.598;2023-05-10T10:31:27;7.30;;;2.17;;
60211;SDS011;46079;48.686;15.598;2023-05-10T10:34:06;7.13;;;2.17;;
60211;SDS011;46079;48.686;15.598;2023-05-10T10:36:44;7.43;;;2.40;;
60211;SDS011;46079;48.686;15.598;2023-05-10T10:39:11;6.32;;;2.15;;
60211;SDS011;46079;48.686;15.598;2023-05-10T10:41:38;8.00;;;2.53;;
60211;SDS011;46079;48.686;15.598;2023-05-10T10:52:42;7.43;;;2.15;;
60211;SDS011;46079;48.686;15.598;2023-05-10T10:55:18;6.18;;;2.00;;
60211;SDS011;46079;48.686;15.598;2023-05-10T11:00:26;7.15;;;2.22;;
60211;SDS011;46079;48.686;15.598;2023-05-10T11:03:06;7.47;;;2.08;;
60211;SDS011;46079;48.686;15.598;2023-05-10T11:08:08;6.90;;;2.28;;
60211;SDS011;46079;48.686;15.598;2023-05-10T11:10:34;6.10;;;2.00;;
60211;SDS011;46079;48.686;15.598;2023-05-10T11:13:00;6.82;;;2.28;;
60211;SDS011;46079;48.686;15.598;2023-05-10T11:15:37;6.60;;;2.00;;
60211;SDS011;46079;48.686;15.598;2023-05-10T11:18:17;6.25;;;1.95;;
60211;SDS011;46079;48.686;15.598;2023-05-10T11:20:51;7.25;;;2.00;;
60211;SDS011;46079;48.686;15.598;2023-05-10T11:23:17;7.80;;;2.17;;
60211;SDS011;46079;48.686;15.598;2023-05-10T11:25:44;6.47;;;2.00;;
60211;SDS011;46079;48.686;15.598;2023-05-10T11:28:13;7.18;;;1.98;;
60211;SDS011;46079;48.686;15.598;2023-05-10T11:30:39;7.88;;;2.25;;
60211;SDS011;46079;48.686;15.598;2023-05-10T11:33:06;7.72;;;2.53;;
60211;SDS011;46079;48.686;15.598;2023-05-10T11:35:39;8.18;;;2.30;;
60211;SDS011;46079;48.686;15.598;2023-05-10T11:38:06;9.20;;;2.80;;
60211;SDS011;46079;48.686;15.598;2023-05-10T11:40:32;12.10;;;2.83;;
60211;SDS011;46079;48.686;15.598;2023-05-10T11:42:58;15.23;;;3.42;;
60211;SDS011;46079;48.686;15.598;2023-05-10T11:45:24;9.18;;;2.70;;
60211;SDS011;46079;48.686;15.598;2023-05-10T11:47:49;11.63;;;3.30;;
60211;SDS011;46079;48.686;15.598;2023-05-10T11:50:15;10.45;;;3.20;;
60211;SDS011;46079;48.686;15.598;2023-05-10T11:52:42;13.40;;;3.03;;
60211;SDS011;46079;48.686;15.598;2023-05-10T11:55:07;13.65;;;3.50;;
60211;SDS011;46079;48.686;15.598;2023-05-10T11:57:33;11.43;;;3.08;;
60211;SDS011;46079;48.686;15.598;2023-05-10T12:00:00;13.73;;;3.83;;
60211;SDS011;46079;48.686;15.598;2023-05-10T12:02:25;11.55;;;3.60;;
60211;SDS011;46079;48.686;15.598;2023-05-10T12:04:51;12.48;;;3.60;;
60211;SDS011;46079;48.686;15.598;2023-05-10T12:07:18;14.80;;;4.07;;
60211;SDS011;46079;48.686;15.598;2023-05-10T12:09:43;11.88;;;3.13;;
60211;SDS011;46079;48.686;15.598;2023-05-10T12:12:18;13.55;;;3.25;;
60211;SDS011;46079;48.686;15.598;2023-05-10T12:14:43;10.85;;;3.00;;
60211;SDS011;46079;48.686;15.598;2023-05-10T12:17:12;11.02;;;3.08;;
60211;SDS011;46079;48.686;15.598;2023-05-10T12:19:38;10.35;;;3.53;;
60211;SDS011;46079;48.686;15.598;2023-05-10T12:22:05;12.30;;;3.13;;
60211;SDS011;46079;48.686;15.598;2023-05-10T12:24:30;11.73;;;3.10;;
60211;SDS011;46079;48.686;15.598;2023-05-10T12:26:59;11.00;;;3.00;;
60211;SDS011;46079;48.686;15.598;2023-05-10T12:29:25;10.52;;;3.08;;
60211;SDS011;46079;48.686;15.598;2023-05-10T12:34:51;10.85;;;3.30;;
60211;SDS011;46079;48.686;15.598;2023-05-10T12:37:11;10.50;;;2.97;;
60211;SDS011;46079;48.686;15.598;2023-05-10T12:39:38;10.52;;;3.13;;
60211;SDS011;46079;48.686;15.598;2023-05-10T12:42:07;12.75;;;3.47;;
60211;SDS011;46079;48.686;15.598;2023-05-10T12:44:33;11.85;;;2.92;;
60211;SDS011;46079;48.686;15.598;2023-05-10T12:46:59;9.70;;;3.40;;
60211;SDS011;46079;48.686;15.598;2023-05-10T12:49:24;8.73;;;2.78;;
60211;SDS011;46079;48.686;15.598;2023-05-10T12:51:49;9.70;;;2.85;;
60211;SDS011;46079;48.686;15.598;2023-05-10T12:54:15;9.45;;;3.00;;
60211;SDS011;46079;48.686;15.598;2023-05-10T12:56:40;10.75;;;3.20;;
60211;SDS011;46079;48.686;15.598;2023-05-10T12:59:07;11.38;;;3.25;;
60211;SDS011;46079;48.686;15.598;2023-05-10T13:01:33;9.05;;;2.97;;
60211;SDS011;46079;48.686;15.598;2023-05-10T13:03:58;9.13;;;2.97;;
60211;SDS011;46079;48.686;15.598;2023-05-10T13:06:25;11.45;;;3.15;;
60211;SDS011;46079;48.686;15.598;2023-05-10T13:08:50;11.55;;;3.10;;
60211;SDS011;46079;48.686;15.598;2023-05-10T13:11:16;10.80;;;3.20;;
60211;SDS011;46079;48.686;15.598;2023-05-10T13:13:44;10.57;;;2.83;;
60211;SDS011;46079;48.686;15.598;2023-05-10T13:16:10;11.15;;;3.05;;
60211;SDS011;46079;48.686;15.598;2023-05-10T13:18:35;10.18;;;3.00;;
60211;SDS011;46079;48.686;15.598;2023-05-10T13:21:00;10.10;;;3.10;;
60211;SDS011;46079;48.686;15.598;2023-05-10T13:23:27;8.57;;;2.70;;
60211;SDS011;46079;48.686;15.598;2023-05-10T13:25:52;9.88;;;2.92;;
60211;SDS011;46079;48.686;15.598;2023-05-10T13:28:18;8.93;;;2.92;;
60211;SDS011;46079;48.686;15.598;2023-05-10T13:30:43;9.30;;;2.92;;
60211;SDS011;46079;48.686;15.598;2023-05-10T13:33:08;11.00;;;3.10;;
60211;SDS011;46079;48.686;15.598;2023-05-10T13:35:34;10.25;;;3.25;;
60211;SDS011;46079;48.686;15.598;2023-05-10T13:37:59;11.52;;;3.08;;
60211;SDS011;46079;48.686;15.598;2023-05-10T13:40:24;10.80;;;3.05;;
60211;SDS011;46079;48.686;15.598;2023-05-10T13:42:50;10.88;;;3.13;;
60211;SDS011;46079;48.686;15.598;2023-05-10T13:45:15;12.35;;;3.42;;
60211;SDS011;46079;48.686;15.598;2023-05-10T13:47:41;10.65;;;3.22;;
60211;SDS011;46079;48.686;15.598;2023-05-10T13:50:06;9.23;;;2.88;;
60211;SDS011;46079;48.686;15.598;2023-05-10T13:52:32;10.35;;;3.28;;
60211;SDS011;46079;48.686;15.598;2023-05-10T13:54:57;11.15;;;3.40;;
60211;SDS011;46079;48.686;15.598;2023-05-10T13:57:23;10.43;;;3.38;;
60211;SDS011;46079;48.686;15.598;2023-05-10T13:59:49;11.68;;;3.47;;
60211;SDS011;46079;48.686;15.598;2023-05-10T14:02:14;9.95;;;3.00;;
60211;SDS011;46079;48.686;15.598;2023-05-10T14:04:40;11.82;;;3.88;;
60211;SDS011;46079;48.686;15.598;2023-05-10T14:07:05;12.75;;;3.40;;
60211;SDS011;46079;48.686;15.598;2023-05-10T14:09:31;9.85;;;3.22;;
60211;SDS011;46079;48.686;15.598;2023-05-10T14:11:56;12.27;;;3.47;;
60211;SDS011;46079;48.686;15.598;2023-05-10T14:14:22;10.70;;;3.63;;
60211;SDS011;46079;48.686;15.598;2023-05-10T14:16:48;10.77;;;3.65;;
60211;SDS011;46079;48.686;15.598;2023-05-10T14:19:13;11.82;;;3.28;;
60211;SDS011;46079;48.686;15.598;2023-05-10T14:21:39;10.40;;;3.83;;
60211;SDS011;46079;48.686;15.598;2023-05-10T14:24:04;11.48;;;3.58;;
60211;SDS011;46079;48.686;15.598;2023-05-10T14:26:31;12.50;;;3.63;;
60211;SDS011;46079;48.686;15.598;2023-05-10T14:28:57;11.50;;;3.35;;
60211;SDS011;46079;48.686;15.598;2023-05-10T14:31:22;11.65;;;3.80;;
60211;SDS011;46079;48.686;15.598;2023-05-10T14:33:49;12.88;;;3.83;;
60211;SDS011;46079;48.686;15.598;2023-05-10T14:36:15;10.90;;;3.55;;
60211;SDS011;46079;48.686;15.598;2023-05-10T14:38:40;11.93;;;3.80;;
60211;SDS011;46079;48.686;15.598;2023-05-10T14:41:06;12.23;;;3.85;;
60211;SDS011;46079;48.686;15.598;2023-05-10T14:43:32;12.23;;;3.45;;
60211;SDS011;46079;48.686;15.598;2023-05-10T14:45:57;11.25;;;3.70;;
60211;SDS011;46079;48.686;15.598;2023-05-10T14:48:23;10.15;;;3.58;;
60211;SDS011;46079;48.686;15.598;2023-05-10T14:50:48;11.88;;;4.15;;
60211;SDS011;46079;48.686;15.598;2023-05-10T14:53:15;11.77;;;3.95;;
60211;SDS011;46079;48.686;15.598;2023-05-10T14:55:40;12.50;;;4.03;;
60211;SDS011;46079;48.686;15.598;2023-05-10T14:58:06;10.00;;;3.30;;
60211;SDS011;46079;48.686;15.598;2023-05-10T15:00:31;11.93;;;3.47;;
60211;SDS011;46079;48.686;15.598;2023-05-10T15:02:57;13.63;;;4.30;;
60211;SDS011;46079;48.686;15.598;2023-05-10T15:05:22;12.68;;;3.80;;
60211;SDS011;46079;48.686;15.598;2023-05-10T15:07:48;11.48;;;3.88;;